sensor_id;sensor_type;location;lat;lon;timestamp;P1;durP1;ratioP1;P2;durP2;ratioP2
42364;SDS011;28498;54.400;18.566;2022-08-21T00:02:17;1.77;;;1.38;;
42364;SDS011;28498;54.400;18.566;2022-08-21T00:04:46;0.68;;;0.65;;
42364;SDS011;28498;54.400;18.566;2022-08-21T00:07:23;1.83;;;0.77;;
42364;SDS011;28498;54.400;18.566;2022-08-21T00:09:52;1.38;;;0.85;;
42364;SDS011;28498;54.400;18.566;2022-08-21T00:12:22;0.32;;;0.32;;
42364;SDS011;28498;54.400;18.566;2022-08-21T00:14:49;1.13;;;1.02;;
42364;SDS011;28498;54.400;18.566;2022-08-21T00:17:22;4.95;;;1.88;;
42364;SDS011;28498;54.400;18.566;2022-08-21T00:19:49;0.63;;;0.57;;
42364;SDS011;28498;54.400;18.566;2022-08-21T00:22:16;0.68;;;0.60;;
42364;SDS011;28498;54.400;18.566;2022-08-21T00:24:43;1.77;;;1.45;;
42364;SDS011;28498;54.400;18.566;2022-08-21T00:27:10;0.98;;;0.60;;
42364;SDS011;28498;54.400;18.566;2022-08-21T00:29:37;0.55;;;0.55;;
42364;SDS011;28498;54.400;18.566;2022-08-21T00:32:05;10.00;;;5.28;;
42364;SDS011;28498;54.400;18.566;2022-08-21T00:34:32;12.23;;;5.95;;
42364;SDS011;28498;54.400;18.566;2022-08-21T00:36:59;14.60;;;5.90;;
42364;SDS011;28498;54.400;18.566;2022-08-21T00:39:26;12.27;;;6.47;;
42364;SDS011;28498;54.400;18.566;2022-08-21T00:41:52;13.65;;;6.07;;
42364;SDS011;28498;54.400;18.566;2022-08-21T00:44:19;11.13;;;5.72;;
42364;SDS011;28498;54.400;18.566;2022-08-21T00:46:46;13.68;;;6.53;;
42364;SDS011;28498;54.400;18.566;2022-08-21T00:49:13;11.27;;;6.18;;
42364;SDS011;28498;54.400;18.566;2022-08-21T00:51:45;13.68;;;6.55;;
42364;SDS011;28498;54.400;18.566;2022-08-21T00:54:19;13.80;;;6.35;;
42364;SDS011;28498;54.400;18.566;2022-08-21T00:56:50;11.60;;;5.75;;
42364;SDS011;28498;54.400;18.566;2022-08-21T00:59:24;11.30;;;6.72;;
42364;SDS011;28498;54.400;18.566;2022-08-21T01:01:52;11.30;;;5.57;;
42364;SDS011;28498;54.400;18.566;2022-08-21T01:04:19;12.85;;;6.13;;
42364;SDS011;28498;54.400;18.566;2022-08-21T01:06:48;12.52;;;6.13;;
42364;SDS011;28498;54.400;18.566;2022-08-21T01:09:17;12.20;;;6.22;;
42364;SDS011;28498;54.400;18.566;2022-08-21T01:11:45;11.38;;;5.88;;
42364;SDS011;28498;54.400;18.566;2022-08-21T01:14:13;10.57;;;5.38;;
42364;SDS011;28498;54.400;18.566;2022-08-21T01:16:42;9.13;;;5.05;;
42364;SDS011;28498;54.400;18.566;2022-08-21T01:19:11;11.50;;;5.45;;
42364;SDS011;28498;54.400;18.566;2022-08-21T01:21:40;8.82;;;4.78;;
42364;SDS011;28498;54.400;18.566;2022-08-21T01:24:09;9.70;;;4.97;;
42364;SDS011;28498;54.400;18.566;2022-08-21T01:26:37;10.32;;;4.80;;
42364;SDS011;28498;54.400;18.566;2022-08-21T01:31:57;11.00;;;5.32;;
42364;SDS011;28498;54.400;18.566;2022-08-21T01:34:25;10.10;;;4.90;;
42364;SDS011;28498;54.400;18.566;2022-08-21T01:36:52;9.48;;;5.05;;
42364;SDS011;28498;54.400;18.566;2022-08-21T01:39:19;10.15;;;5.35;;
42364;SDS011;28498;54.400;18.566;2022-08-21T01:41:46;9.68;;;5.20;;
42364;SDS011;28498;54.400;18.566;2022-08-21T01:44:13;8.77;;;5.07;;
42364;SDS011;28498;54.400;18.566;2022-08-21T01:46:40;9.55;;;4.97;;
42364;SDS011;28498;54.400;18.566;2022-08-21T01:49:07;8.85;;;4.90;;
42364;SDS011;28498;54.400;18.566;2022-08-21T01:51:34;10.80;;;5.72;;
42364;SDS011;28498;54.400;18.566;2022-08-21T01:54:01;8.38;;;4.75;;
42364;SDS011;28498;54.400;18.566;2022-08-21T01:56:31;9.30;;;5.35;;
42364;SDS011;28498;54.400;18.566;2022-08-21T01:59:10;9.43;;;4.55;;
42364;SDS011;28498;54.400;18.566;2022-08-21T02:01:37;5.28;;;2.97;;
42364;SDS011;28498;54.400;18.566;2022-08-21T02:04:08;0.40;;;0.40;;
42364;SDS011;28498;54.400;18.566;2022-08-21T02:06:36;1.63;;;0.95;;
42364;SDS011;28498;54.400;18.566;2022-08-21T02:09:04;0.82;;;0.63;;
42364;SDS011;28498;54.400;18.566;2022-08-21T02:11:33;0.82;;;0.50;;
42364;SDS011;28498;54.400;18.566;2022-08-21T02:14:01;0.73;;;0.60;;
42364;SDS011;28498;54.400;18.566;2022-08-21T02:16:28;0.77;;;0.50;;
42364;SDS011;28498;54.400;18.566;2022-08-21T02:18:55;2.28;;;1.85;;
42364;SDS011;28498;54.400;18.566;2022-08-21T02:21:22;1.95;;;0.73;;
42364;SDS011;28498;54.400;18.566;2022-08-21T02:23:49;2.15;;;0.47;;
42364;SDS011;28498;54.400;18.566;2022-08-21T02:26:16;2.05;;;1.83;;
42364;SDS011;28498;54.400;18.566;2022-08-21T02:28:44;0.88;;;0.88;;
42364;SDS011;28498;54.400;18.566;2022-08-21T02:31:11;1.02;;;0.68;;
42364;SDS011;28498;54.400;18.566;2022-08-21T02:33:38;12.38;;;1.65;;
42364;SDS011;28498;54.400;18.566;2022-08-21T02:36:06;1.38;;;1.27;;
42364;SDS011;28498;54.400;18.566;2022-08-21T02:38:35;0.90;;;0.60;;
42364;SDS011;28498;54.400;18.566;2022-08-21T02:41:07;1.52;;;1.42;;
42364;SDS011;28498;54.400;18.566;2022-08-21T02:43:36;0.88;;;0.80;;
42364;SDS011;28498;54.400;18.566;2022-08-21T02:46:03;1.02;;;0.88;;
42364;SDS011;28498;54.400;18.566;2022-08-21T02:48:32;1.00;;;0.75;;
42364;SDS011;28498;54.400;18.566;2022-08-21T02:51:01;4.93;;;1.90;;
42364;SDS011;28498;54.400;18.566;2022-08-21T02:53:31;1.63;;;1.42;;
42364;SDS011;28498;54.400;18.566;2022-08-21T02:55:59;1.20;;;1.10;;
42364;SDS011;28498;54.400;18.566;2022-08-21T02:58:31;0.45;;;0.45;;
42364;SDS011;28498;54.400;18.566;2022-08-21T03:01:00;0.80;;;0.68;;
42364;SDS011;28498;54.400;18.566;2022-08-21T03:03:27;11.77;;;6.03;;
42364;SDS011;28498;54.400;18.566;2022-08-21T03:05:55;14.05;;;6.00;;
42364;SDS011;28498;54.400;18.566;2022-08-21T03:08:23;14.82;;;6.63;;
42364;SDS011;28498;54.400;18.566;2022-08-21T03:10:53;10.50;;;6.47;;
42364;SDS011;28498;54.400;18.566;2022-08-21T03:13:20;15.02;;;7.40;;
42364;SDS011;28498;54.400;18.566;2022-08-21T03:15:48;12.05;;;6.15;;
42364;SDS011;28498;54.400;18.566;2022-08-21T03:18:16;16.35;;;6.97;;
42364;SDS011;28498;54.400;18.566;2022-08-21T03:20:44;13.48;;;6.80;;
42364;SDS011;28498;54.400;18.566;2022-08-21T03:23:11;16.08;;;6.47;;
42364;SDS011;28498;54.400;18.566;2022-08-21T03:25:44;12.75;;;6.53;;
42364;SDS011;28498;54.400;18.566;2022-08-21T03:28:16;17.52;;;6.88;;
42364;SDS011;28498;54.400;18.566;2022-08-21T03:30:46;11.55;;;6.82;;
42364;SDS011;28498;54.400;18.566;2022-08-21T03:33:15;13.20;;;6.80;;
42364;SDS011;28498;54.400;18.566;2022-08-21T03:35:47;12.60;;;6.80;;
42364;SDS011;28498;54.400;18.566;2022-08-21T03:38:18;10.55;;;5.65;;
42364;SDS011;28498;54.400;18.566;2022-08-21T03:40:51;11.95;;;6.88;;
42364;SDS011;28498;54.400;18.566;2022-08-21T03:43:19;12.60;;;6.78;;
42364;SDS011;28498;54.400;18.566;2022-08-21T03:45:46;11.70;;;6.45;;
42364;SDS011;28498;54.400;18.566;2022-08-21T03:48:13;15.15;;;6.32;;
42364;SDS011;28498;54.400;18.566;2022-08-21T03:50:41;13.40;;;6.90;;
42364;SDS011;28498;54.400;18.566;2022-08-21T03:53:10;12.38;;;6.57;;
42364;SDS011;28498;54.400;18.566;2022-08-21T03:55:46;14.98;;;6.70;;
42364;SDS011;28498;54.400;18.566;2022-08-21T03:58:15;13.60;;;6.18;;
42364;SDS011;28498;54.400;18.566;2022-08-21T04:00:44;13.98;;;6.82;;
42364;SDS011;28498;54.400;18.566;2022-08-21T04:03:12;15.05;;;6.63;;
42364;SDS011;28498;54.400;18.566;2022-08-21T04:05:40;14.88;;;6.47;;
42364;SDS011;28498;54.400;18.566;2022-08-21T04:08:07;11.43;;;6.15;;
42364;SDS011;28498;54.400;18.566;2022-08-21T04:10:36;14.20;;;6.72;;
42364;SDS011;28498;54.400;18.566;2022-08-21T04:13:04;14.68;;;6.90;;
42364;SDS011;28498;54.400;18.566;2022-08-21T04:15:33;12.07;;;5.95;;
42364;SDS011;28498;54.400;18.566;2022-08-21T04:18:00;13.43;;;6.72;;
42364;SDS011;28498;54.400;18.566;2022-08-21T04:20:27;13.43;;;5.70;;
42364;SDS011;28498;54.400;18.566;2022-08-21T04:22:54;12.23;;;6.50;;
42364;SDS011;28498;54.400;18.566;2022-08-21T04:25:22;10.10;;;5.57;;
42364;SDS011;28498;54.400;18.566;2022-08-21T04:27:52;15.27;;;6.43;;
42364;SDS011;28498;54.400;18.566;2022-08-21T04:30:19;13.27;;;6.38;;
42364;SDS011;28498;54.400;18.566;2022-08-21T04:32:53;13.50;;;6.25;;
42364;SDS011;28498;54.400;18.566;2022-08-21T04:35:21;14.27;;;6.82;;
42364;SDS011;28498;54.400;18.566;2022-08-21T04:37:50;14.68;;;9.10;;
42364;SDS011;28498;54.400;18.566;2022-08-21T04:40:17;15.40;;;8.30;;
42364;SDS011;28498;54.400;18.566;2022-08-21T04:42:49;14.10;;;7.90;;
42364;SDS011;28498;54.400;18.566;2022-08-21T04:45:25;15.63;;;9.23;;
42364;SDS011;28498;54.400;18.566;2022-08-21T04:47:55;15.98;;;8.32;;
42364;SDS011;28498;54.400;18.566;2022-08-21T04:50:26;14.10;;;8.75;;
42364;SDS011;28498;54.400;18.566;2022-08-21T04:53:06;13.02;;;7.78;;
42364;SDS011;28498;54.400;18.566;2022-08-21T04:55:38;13.90;;;8.40;;
42364;SDS011;28498;54.400;18.566;2022-08-21T04:58:07;14.10;;;7.90;;
42364;SDS011;28498;54.400;18.566;2022-08-21T05:00:37;13.63;;;8.27;;
42364;SDS011;28498;54.400;18.566;2022-08-21T05:03:05;16.63;;;8.77;;
42364;SDS011;28498;54.400;18.566;2022-08-21T05:05:33;15.98;;;7.97;;
42364;SDS011;28498;54.400;18.566;2022-08-21T05:08:01;11.60;;;7.40;;
42364;SDS011;28498;54.400;18.566;2022-08-21T05:10:29;13.38;;;7.93;;
42364;SDS011;28498;54.400;18.566;2022-08-21T05:12:57;13.98;;;9.48;;
42364;SDS011;28498;54.400;18.566;2022-08-21T05:15:26;17.42;;;10.57;;
42364;SDS011;28498;54.400;18.566;2022-08-21T05:17:53;15.77;;;11.18;;
42364;SDS011;28498;54.400;18.566;2022-08-21T05:20:27;15.00;;;10.53;;
42364;SDS011;28498;54.400;18.566;2022-08-21T05:22:54;16.90;;;11.93;;
42364;SDS011;28498;54.400;18.566;2022-08-21T05:25:21;15.63;;;11.30;;
42364;SDS011;28498;54.400;18.566;2022-08-21T05:27:49;17.15;;;11.00;;
42364;SDS011;28498;54.400;18.566;2022-08-21T05:30:17;14.23;;;10.52;;
42364;SDS011;28498;54.400;18.566;2022-08-21T05:32:45;14.93;;;10.60;;
42364;SDS011;28498;54.400;18.566;2022-08-21T05:35:14;15.90;;;11.10;;
42364;SDS011;28498;54.400;18.566;2022-08-21T05:37:41;13.40;;;10.20;;
42364;SDS011;28498;54.400;18.566;2022-08-21T05:40:08;15.27;;;11.40;;
42364;SDS011;28498;54.400;18.566;2022-08-21T05:42:48;15.07;;;10.52;;
42364;SDS011;28498;54.400;18.566;2022-08-21T05:45:20;13.35;;;10.57;;
42364;SDS011;28498;54.400;18.566;2022-08-21T05:48:10;12.85;;;9.88;;
42364;SDS011;28498;54.400;18.566;2022-08-21T05:50:39;16.05;;;10.57;;
42364;SDS011;28498;54.400;18.566;2022-08-21T05:53:07;12.68;;;10.23;;
42364;SDS011;28498;54.400;18.566;2022-08-21T05:55:36;13.40;;;10.32;;
42364;SDS011;28498;54.400;18.566;2022-08-21T05:58:10;14.10;;;10.43;;
42364;SDS011;28498;54.400;18.566;2022-08-21T06:00:38;12.23;;;9.13;;
42364;SDS011;28498;54.400;18.566;2022-08-21T06:03:10;11.55;;;9.35;;
42364;SDS011;28498;54.400;18.566;2022-08-21T06:05:37;14.90;;;9.93;;
42364;SDS011;28498;54.400;18.566;2022-08-21T06:08:05;10.60;;;8.88;;
42364;SDS011;28498;54.400;18.566;2022-08-21T06:10:32;13.35;;;9.23;;
42364;SDS011;28498;54.400;18.566;2022-08-21T06:12:59;10.35;;;8.63;;
42364;SDS011;28498;54.400;18.566;2022-08-21T06:15:26;11.52;;;9.15;;
42364;SDS011;28498;54.400;18.566;2022-08-21T06:17:53;9.93;;;8.27;;
42364;SDS011;28498;54.400;18.566;2022-08-21T06:20:21;11.05;;;8.43;;
42364;SDS011;28498;54.400;18.566;2022-08-21T06:22:48;10.63;;;8.43;;
42364;SDS011;28498;54.400;18.566;2022-08-21T06:25:15;10.20;;;8.60;;
42364;SDS011;28498;54.400;18.566;2022-08-21T06:27:42;10.55;;;8.50;;
42364;SDS011;28498;54.400;18.566;2022-08-21T06:30:10;10.98;;;8.90;;
42364;SDS011;28498;54.400;18.566;2022-08-21T06:32:37;11.70;;;8.23;;
42364;SDS011;28498;54.400;18.566;2022-08-21T06:35:05;11.25;;;8.60;;
42364;SDS011;28498;54.400;18.566;2022-08-21T06:37:33;11.07;;;8.75;;
42364;SDS011;28498;54.400;18.566;2022-08-21T06:40:00;12.07;;;8.93;;
42364;SDS011;28498;54.400;18.566;2022-08-21T06:42:27;11.68;;;9.05;;
42364;SDS011;28498;54.400;18.566;2022-08-21T06:44:54;12.65;;;9.65;;
42364;SDS011;28498;54.400;18.566;2022-08-21T06:47:23;10.13;;;8.32;;
42364;SDS011;28498;54.400;18.566;2022-08-21T06:49:50;9.05;;;7.38;;
42364;SDS011;28498;54.400;18.566;2022-08-21T06:52:16;10.45;;;8.13;;
42364;SDS011;28498;54.400;18.566;2022-08-21T06:54:43;9.82;;;8.07;;
42364;SDS011;28498;54.400;18.566;2022-08-21T06:57:10;10.32;;;7.35;;
42364;SDS011;28498;54.400;18.566;2022-08-21T06:59:37;9.88;;;7.82;;
42364;SDS011;28498;54.400;18.566;2022-08-21T07:02:04;10.80;;;7.28;;
42364;SDS011;28498;54.400;18.566;2022-08-21T07:04:31;10.15;;;7.32;;
42364;SDS011;28498;54.400;18.566;2022-08-21T07:06:58;9.38;;;6.95;;
42364;SDS011;28498;54.400;18.566;2022-08-21T07:09:25;9.25;;;7.50;;
42364;SDS011;28498;54.400;18.566;2022-08-21T07:11:53;10.85;;;8.00;;
42364;SDS011;28498;54.400;18.566;2022-08-21T07:14:22;12.40;;;8.32;;
42364;SDS011;28498;54.400;18.566;2022-08-21T07:16:49;11.90;;;8.57;;
42364;SDS011;28498;54.400;18.566;2022-08-21T07:19:17;12.40;;;9.85;;
42364;SDS011;28498;54.400;18.566;2022-08-21T07:21:44;12.25;;;8.73;;
42364;SDS011;28498;54.400;18.566;2022-08-21T07:24:12;11.82;;;8.60;;
42364;SDS011;28498;54.400;18.566;2022-08-21T07:26:40;10.77;;;8.32;;
42364;SDS011;28498;54.400;18.566;2022-08-21T07:29:07;11.43;;;8.45;;
42364;SDS011;28498;54.400;18.566;2022-08-21T07:31:34;11.18;;;9.02;;
42364;SDS011;28498;54.400;18.566;2022-08-21T07:34:01;13.40;;;8.07;;
42364;SDS011;28498;54.400;18.566;2022-08-21T07:36:28;12.05;;;8.40;;
42364;SDS011;28498;54.400;18.566;2022-08-21T07:38:58;11.60;;;8.48;;
42364;SDS011;28498;54.400;18.566;2022-08-21T07:41:26;15.27;;;8.73;;
42364;SDS011;28498;54.400;18.566;2022-08-21T07:43:58;14.55;;;9.50;;
42364;SDS011;28498;54.400;18.566;2022-08-21T07:46:25;13.13;;;8.73;;
42364;SDS011;28498;54.400;18.566;2022-08-21T07:48:53;14.57;;;9.30;;
42364;SDS011;28498;54.400;18.566;2022-08-21T07:51:21;16.17;;;8.98;;
42364;SDS011;28498;54.400;18.566;2022-08-21T07:53:53;17.48;;;8.98;;
42364;SDS011;28498;54.400;18.566;2022-08-21T07:56:21;18.27;;;9.27;;
42364;SDS011;28498;54.400;18.566;2022-08-21T07:58:48;15.48;;;8.95;;
42364;SDS011;28498;54.400;18.566;2022-08-21T08:01:16;13.45;;;8.40;;
42364;SDS011;28498;54.400;18.566;2022-08-21T08:03:43;18.58;;;10.10;;
42364;SDS011;28498;54.400;18.566;2022-08-21T08:06:11;16.65;;;8.65;;
42364;SDS011;28498;54.400;18.566;2022-08-21T08:08:39;13.13;;;9.55;;
42364;SDS011;28498;54.400;18.566;2022-08-21T08:11:10;14.63;;;9.48;;
42364;SDS011;28498;54.400;18.566;2022-08-21T08:13:42;15.63;;;9.95;;
42364;SDS011;28498;54.400;18.566;2022-08-21T08:16:17;17.13;;;10.20;;
42364;SDS011;28498;54.400;18.566;2022-08-21T08:18:45;17.33;;;10.57;;
42364;SDS011;28498;54.400;18.566;2022-08-21T08:21:12;15.85;;;10.20;;
42364;SDS011;28498;54.400;18.566;2022-08-21T08:23:41;14.75;;;10.18;;
42364;SDS011;28498;54.400;18.566;2022-08-21T08:26:10;13.85;;;10.38;;
42364;SDS011;28498;54.400;18.566;2022-08-21T08:28:37;15.15;;;9.35;;
42364;SDS011;28498;54.400;18.566;2022-08-21T08:31:04;10.77;;;8.13;;
42364;SDS011;28498;54.400;18.566;2022-08-21T08:33:31;12.52;;;8.80;;
42364;SDS011;28498;54.400;18.566;2022-08-21T08:35:58;12.93;;;8.98;;
42364;SDS011;28498;54.400;18.566;2022-08-21T08:38:33;12.32;;;8.88;;
42364;SDS011;28498;54.400;18.566;2022-08-21T08:43:39;12.43;;;8.10;;
42364;SDS011;28498;54.400;18.566;2022-08-21T08:46:20;10.73;;;7.32;;
42364;SDS011;28498;54.400;18.566;2022-08-21T08:49:06;12.20;;;7.70;;
42364;SDS011;28498;54.400;18.566;2022-08-21T08:51:46;8.50;;;6.55;;
42364;SDS011;28498;54.400;18.566;2022-08-21T08:55:03;9.57;;;5.82;;
42364;SDS011;28498;54.400;18.566;2022-08-21T08:57:14;9.20;;;5.80;;
42364;SDS011;28498;54.400;18.566;2022-08-21T08:59:45;8.95;;;5.43;;
42364;SDS011;28498;54.400;18.566;2022-08-21T09:02:18;9.98;;;5.55;;
42364;SDS011;28498;54.400;18.566;2022-08-21T09:04:47;8.50;;;5.75;;
42364;SDS011;28498;54.400;18.566;2022-08-21T09:07:25;9.07;;;5.63;;
42364;SDS011;28498;54.400;18.566;2022-08-21T09:10:23;7.18;;;4.57;;
42364;SDS011;28498;54.400;18.566;2022-08-21T09:16:11;7.05;;;5.20;;
42364;SDS011;28498;54.400;18.566;2022-08-21T09:19:15;11.80;;;4.72;;
42364;SDS011;28498;54.400;18.566;2022-08-21T09:24:40;10.15;;;5.18;;
42364;SDS011;28498;54.400;18.566;2022-08-21T09:27:17;7.78;;;4.60;;
42364;SDS011;28498;54.400;18.566;2022-08-21T09:29:46;10.43;;;5.22;;
42364;SDS011;28498;54.400;18.566;2022-08-21T09:32:18;9.10;;;5.95;;
42364;SDS011;28498;54.400;18.566;2022-08-21T09:44:23;12.75;;;6.25;;
42364;SDS011;28498;54.400;18.566;2022-08-21T09:50:36;11.85;;;6.47;;
42364;SDS011;28498;54.400;18.566;2022-08-21T09:53:03;10.73;;;5.95;;
42364;SDS011;28498;54.400;18.566;2022-08-21T09:55:47;1.23;;;0.63;;
42364;SDS011;28498;54.400;18.566;2022-08-21T10:02:26;0.55;;;0.55;;
42364;SDS011;28498;54.400;18.566;2022-08-21T10:05:01;1.00;;;0.90;;
42364;SDS011;28498;54.400;18.566;2022-08-21T10:07:54;0.45;;;0.43;;
42364;SDS011;28498;54.400;18.566;2022-08-21T10:10:31;0.43;;;0.38;;
42364;SDS011;28498;54.400;18.566;2022-08-21T10:24:33;1.13;;;1.02;;
42364;SDS011;28498;54.400;18.566;2022-08-21T10:29:47;0.20;;;0.20;;
42364;SDS011;28498;54.400;18.566;2022-08-21T10:32:48;0.55;;;0.55;;
42364;SDS011;28498;54.400;18.566;2022-08-21T10:35:40;0.65;;;0.47;;
42364;SDS011;28498;54.400;18.566;2022-08-21T10:38:36;0.20;;;0.20;;
42364;SDS011;28498;54.400;18.566;2022-08-21T10:45:05;0.43;;;0.38;;
42364;SDS011;28498;54.400;18.566;2022-08-21T10:47:56;0.40;;;0.40;;
42364;SDS011;28498;54.400;18.566;2022-08-21T10:50:37;4.80;;;0.55;;
42364;SDS011;28498;54.400;18.566;2022-08-21T10:53:39;7.70;;;2.28;;
42364;SDS011;28498;54.400;18.566;2022-08-21T10:56:27;4.82;;;2.10;;
42364;SDS011;28498;54.400;18.566;2022-08-21T11:04:36;6.57;;;3.58;;
42364;SDS011;28498;54.400;18.566;2022-08-21T11:10:00;6.55;;;4.15;;
42364;SDS011;28498;54.400;18.566;2022-08-21T11:15:23;7.55;;;5.50;;
42364;SDS011;28498;54.400;18.566;2022-08-21T11:23:50;7.22;;;4.25;;
42364;SDS011;28498;54.400;18.566;2022-08-21T11:26:45;6.68;;;4.43;;
42364;SDS011;28498;54.400;18.566;2022-08-21T11:29:21;7.90;;;4.82;;
42364;SDS011;28498;54.400;18.566;2022-08-21T11:35:01;8.68;;;4.78;;
42364;SDS011;28498;54.400;18.566;2022-08-21T11:45:47;8.73;;;4.40;;
42364;SDS011;28498;54.400;18.566;2022-08-21T11:51:01;8.32;;;4.50;;
42364;SDS011;28498;54.400;18.566;2022-08-21T11:53:36;6.00;;;4.20;;
42364;SDS011;28498;54.400;18.566;2022-08-21T11:56:31;7.35;;;3.92;;
42364;SDS011;28498;54.400;18.566;2022-08-21T11:59:06;6.18;;;4.70;;
42364;SDS011;28498;54.400;18.566;2022-08-21T12:01:39;6.22;;;3.92;;
42364;SDS011;28498;54.400;18.566;2022-08-21T12:04:31;6.40;;;3.33;;
42364;SDS011;28498;54.400;18.566;2022-08-21T12:07:13;8.13;;;4.15;;
42364;SDS011;28498;54.400;18.566;2022-08-21T12:09:55;7.13;;;3.45;;
42364;SDS011;28498;54.400;18.566;2022-08-21T12:23:24;7.43;;;3.83;;
42364;SDS011;28498;54.400;18.566;2022-08-21T12:26:02;9.52;;;4.55;;
42364;SDS011;28498;54.400;18.566;2022-08-21T12:28:39;13.75;;;6.88;;
42364;SDS011;28498;54.400;18.566;2022-08-21T12:31:17;10.90;;;5.53;;
42364;SDS011;28498;54.400;18.566;2022-08-21T12:33:51;8.88;;;3.83;;
42364;SDS011;28498;54.400;18.566;2022-08-21T12:36:22;9.48;;;4.10;;
42364;SDS011;28498;54.400;18.566;2022-08-21T12:39:04;6.65;;;3.55;;
42364;SDS011;28498;54.400;18.566;2022-08-21T12:41:45;7.78;;;3.78;;
42364;SDS011;28498;54.400;18.566;2022-08-21T12:44:17;8.27;;;3.13;;
42364;SDS011;28498;54.400;18.566;2022-08-21T12:47:00;7.70;;;3.05;;
42364;SDS011;28498;54.400;18.566;2022-08-21T12:49:33;6.35;;;3.40;;
42364;SDS011;28498;54.400;18.566;2022-08-21T12:52:03;8.40;;;3.85;;
42364;SDS011;28498;54.400;18.566;2022-08-21T12:54:37;8.27;;;3.90;;
42364;SDS011;28498;54.400;18.566;2022-08-21T12:57:20;9.00;;;3.60;;
42364;SDS011;28498;54.400;18.566;2022-08-21T12:59:52;6.57;;;3.70;;
42364;SDS011;28498;54.400;18.566;2022-08-21T13:02:27;9.68;;;3.28;;
42364;SDS011;28498;54.400;18.566;2022-08-21T13:05:03;8.77;;;2.97;;
42364;SDS011;28498;54.400;18.566;2022-08-21T13:07:32;4.85;;;2.85;;
42364;SDS011;28498;54.400;18.566;2022-08-21T13:10:06;5.60;;;3.10;;
42364;SDS011;28498;54.400;18.566;2022-08-21T13:12:42;5.47;;;3.08;;
42364;SDS011;28498;54.400;18.566;2022-08-21T13:15:11;9.13;;;3.85;;
42364;SDS011;28498;54.400;18.566;2022-08-21T13:17:41;8.82;;;3.60;;
42364;SDS011;28498;54.400;18.566;2022-08-21T13:20:22;7.25;;;3.15;;
42364;SDS011;28498;54.400;18.566;2022-08-21T13:22:51;8.40;;;3.80;;
42364;SDS011;28498;54.400;18.566;2022-08-21T13:25:19;7.78;;;3.90;;
42364;SDS011;28498;54.400;18.566;2022-08-21T13:28:07;8.55;;;3.45;;
42364;SDS011;28498;54.400;18.566;2022-08-21T13:30:41;6.18;;;3.42;;
42364;SDS011;28498;54.400;18.566;2022-08-21T13:33:21;6.50;;;3.75;;
42364;SDS011;28498;54.400;18.566;2022-08-21T13:36:19;5.65;;;3.45;;
42364;SDS011;28498;54.400;18.566;2022-08-21T13:38:51;8.38;;;3.38;;
42364;SDS011;28498;54.400;18.566;2022-08-21T13:41:30;8.23;;;3.65;;
42364;SDS011;28498;54.400;18.566;2022-08-21T13:44:04;11.95;;;3.63;;
42364;SDS011;28498;54.400;18.566;2022-08-21T13:46:33;7.90;;;4.00;;
42364;SDS011;28498;54.400;18.566;2022-08-21T13:49:02;8.73;;;3.88;;
42364;SDS011;28498;54.400;18.566;2022-08-21T13:51:32;9.05;;;4.65;;
42364;SDS011;28498;54.400;18.566;2022-08-21T13:54:00;6.53;;;3.78;;
42364;SDS011;28498;54.400;18.566;2022-08-21T13:56:32;10.70;;;4.28;;
42364;SDS011;28498;54.400;18.566;2022-08-21T13:59:07;8.98;;;4.85;;
42364;SDS011;28498;54.400;18.566;2022-08-21T14:07:02;9.55;;;4.97;;
42364;SDS011;28498;54.400;18.566;2022-08-21T14:09:42;8.65;;;4.85;;
42364;SDS011;28498;54.400;18.566;2022-08-21T14:12:12;10.77;;;4.60;;
42364;SDS011;28498;54.400;18.566;2022-08-21T14:14:49;6.47;;;4.18;;
42364;SDS011;28498;54.400;18.566;2022-08-21T14:17:30;7.68;;;4.47;;
42364;SDS011;28498;54.400;18.566;2022-08-21T14:20:00;9.32;;;4.57;;
42364;SDS011;28498;54.400;18.566;2022-08-21T14:22:29;6.72;;;4.30;;
42364;SDS011;28498;54.400;18.566;2022-08-21T14:25:03;10.05;;;4.35;;
42364;SDS011;28498;54.400;18.566;2022-08-21T14:27:34;6.60;;;3.67;;
42364;SDS011;28498;54.400;18.566;2022-08-21T14:30:11;8.48;;;3.80;;
42364;SDS011;28498;54.400;18.566;2022-08-21T14:32:42;12.27;;;4.82;;
42364;SDS011;28498;54.400;18.566;2022-08-21T14:35:11;10.85;;;4.25;;
42364;SDS011;28498;54.400;18.566;2022-08-21T14:37:42;10.30;;;4.30;;
42364;SDS011;28498;54.400;18.566;2022-08-21T14:40:10;7.05;;;4.30;;
42364;SDS011;28498;54.400;18.566;2022-08-21T14:42:41;6.82;;;4.35;;
42364;SDS011;28498;54.400;18.566;2022-08-21T14:45:20;9.15;;;4.05;;
42364;SDS011;28498;54.400;18.566;2022-08-21T14:47:53;8.95;;;4.50;;
42364;SDS011;28498;54.400;18.566;2022-08-21T14:50:20;5.47;;;3.00;;
42364;SDS011;28498;54.400;18.566;2022-08-21T14:52:48;7.70;;;3.03;;
42364;SDS011;28498;54.400;18.566;2022-08-21T14:55:16;5.50;;;3.20;;
42364;SDS011;28498;54.400;18.566;2022-08-21T14:57:45;10.65;;;3.40;;
42364;SDS011;28498;54.400;18.566;2022-08-21T15:00:18;7.28;;;3.33;;
42364;SDS011;28498;54.400;18.566;2022-08-21T15:03:01;5.95;;;2.92;;
42364;SDS011;28498;54.400;18.566;2022-08-21T15:05:29;8.75;;;3.47;;
42364;SDS011;28498;54.400;18.566;2022-08-21T15:07:59;7.28;;;3.90;;
42364;SDS011;28498;54.400;18.566;2022-08-21T15:10:26;7.72;;;3.65;;
42364;SDS011;28498;54.400;18.566;2022-08-21T15:12:54;7.28;;;4.03;;
42364;SDS011;28498;54.400;18.566;2022-08-21T15:15:21;8.93;;;3.83;;
42364;SDS011;28498;54.400;18.566;2022-08-21T15:17:48;8.35;;;3.88;;
42364;SDS011;28498;54.400;18.566;2022-08-21T15:20:15;9.82;;;3.83;;
42364;SDS011;28498;54.400;18.566;2022-08-21T15:22:42;8.40;;;4.43;;
42364;SDS011;28498;54.400;18.566;2022-08-21T15:25:13;13.20;;;5.15;;
42364;SDS011;28498;54.400;18.566;2022-08-21T15:27:40;8.23;;;4.32;;
42364;SDS011;28498;54.400;18.566;2022-08-21T15:30:07;7.70;;;4.30;;
42364;SDS011;28498;54.400;18.566;2022-08-21T15:32:35;13.85;;;4.78;;
42364;SDS011;28498;54.400;18.566;2022-08-21T15:35:02;11.98;;;4.72;;
42364;SDS011;28498;54.400;18.566;2022-08-21T15:37:29;7.93;;;4.30;;
42364;SDS011;28498;54.400;18.566;2022-08-21T15:39:56;9.20;;;4.68;;
42364;SDS011;28498;54.400;18.566;2022-08-21T15:42:24;8.40;;;4.57;;
42364;SDS011;28498;54.400;18.566;2022-08-21T15:44:55;15.73;;;5.25;;
42364;SDS011;28498;54.400;18.566;2022-08-21T15:47:25;10.15;;;4.63;;
42364;SDS011;28498;54.400;18.566;2022-08-21T15:50:00;11.55;;;5.20;;
42364;SDS011;28498;54.400;18.566;2022-08-21T15:52:28;12.15;;;5.45;;
42364;SDS011;28498;54.400;18.566;2022-08-21T15:54:55;9.70;;;4.85;;
42364;SDS011;28498;54.400;18.566;2022-08-21T15:57:22;8.77;;;4.60;;
42364;SDS011;28498;54.400;18.566;2022-08-21T15:59:51;9.68;;;5.35;;
42364;SDS011;28498;54.400;18.566;2022-08-21T16:02:22;9.43;;;5.30;;
42364;SDS011;28498;54.400;18.566;2022-08-21T16:04:52;13.60;;;5.75;;
42364;SDS011;28498;54.400;18.566;2022-08-21T16:07:20;15.63;;;6.10;;
42364;SDS011;28498;54.400;18.566;2022-08-21T16:09:46;11.98;;;5.40;;
42364;SDS011;28498;54.400;18.566;2022-08-21T16:12:19;14.23;;;5.43;;
42364;SDS011;28498;54.400;18.566;2022-08-21T16:14:51;9.02;;;5.22;;
42364;SDS011;28498;54.400;18.566;2022-08-21T16:17:19;14.00;;;5.75;;
42364;SDS011;28498;54.400;18.566;2022-08-21T16:19:50;12.05;;;5.43;;
42364;SDS011;28498;54.400;18.566;2022-08-21T16:22:17;12.25;;;4.72;;
42364;SDS011;28498;54.400;18.566;2022-08-21T16:24:44;11.73;;;5.45;;